Nuussuaq

KL  EN  DA
ASIAQ
Weather Now GREENLAND SURVEY
Updated [WGT/WGST] Temperature [°C] Wind [m/s] Air pressure [hPa] Relative humidity [%] Precipitation [mm]
Present Wind chill Speed Max
30.11 17:00-6,5-14,67,7 ⇘10,3100179n/a
30.11 16:00-6,4-11,83,6 ⇓6,7100268n/a
30.11 15:00-6,6-13,25,1 ⇘7,2100363n/a
30.11 14:00-6,5-14,67,7 ⇘10,3100365n/a
30.11 13:00-6,5-14,98,2 ⇘10,8100462n/a
30.11 12:00-6,6-15,38,8 ⇘10,8100561n/a
30.11 11:00-6,4-15,08,8 ⇘10,3100663n/a
30.11 10:00-6,3-14,98,8 ⇘11,8100666n/a
30.11 09:00-6,1-14,68,8 ⇘11,3100762n/a
30.11 08:00-6,0-15,110,3 ⇘12,4100762n/a
30.11 07:00-5,9-15,010,3 ⇘12,9100767n/a
30.11 06:00-6,2-14,78,8 ⇘11,8100775n/a
30.11 05:00-6,0-15,310,8 ⇘14,4100679n/a
30.11 04:00-6,5-16,712,9 ⇘16,0100586n/a
30.11 03:00-5,9-16,013,4 ⇘16,5100490n/a
30.11 02:00-5,6-15,914,4 ⇘17,5100390n/a
30.11 01:00-5,1-14,311,3 ⇓13,9100392n/a
30.11 00:00-4,9-14,512,9 ⇓16,0100290n/a
29.11 23:00-4,7-13,711,3 ⇓14,4100291n/a
29.11 22:00-4,6-13,210,3 ⇓14,4100192n/a
29.11 21:00-4,9-12,67,7 ⇓11,3100189n/a
29.11 20:00-5,2-12,46,7 ⇓10,8100183n/a
29.11 19:00-5,2-12,46,7 ⇓10,8100082n/a
29.11 18:00-5,6-13,27,2 ⇙9,3100079n/a
29.11 17:00-5,8-11,13,6 ⇓6,2100091n/a
Position: (70.656111111,-54.6)

[Back]